sensor_id;sensor_type;location;lat;lon;timestamp;pressure;altitude;pressure_sealevel;temperature;humidity
17525;BME280;40431;52.198;9.902;2022-12-01T00:01:37;101737.03;;;4.02;100.00
17525;BME280;40431;52.198;9.902;2022-12-01T00:04:06;101740.56;;;4.04;100.00
17525;BME280;40431;52.198;9.902;2022-12-01T00:06:36;101737.91;;;4.03;100.00
17525;BME280;40431;52.198;9.902;2022-12-01T00:09:08;101746.97;;;3.95;100.00
17525;BME280;40431;52.198;9.902;2022-12-01T00:11:54;101735.31;;;3.98;100.00
17525;BME280;40431;52.198;9.902;2022-12-01T00:14:24;101736.38;;;3.86;100.00
17525;BME280;40431;52.198;9.902;2022-12-01T00:16:52;101740.81;;;3.89;100.00
17525;BME280;40431;52.198;9.902;2022-12-01T00:19:23;101745.28;;;3.90;100.00
17525;BME280;40431;52.198;9.902;2022-12-01T00:21:51;101740.84;;;3.85;100.00
17525;BME280;40431;52.198;9.902;2022-12-01T00:24:20;101754.25;;;3.85;100.00
17525;BME280;40431;52.198;9.902;2022-12-01T00:26:48;101747.19;;;3.80;100.00
17525;BME280;40431;52.198;9.902;2022-12-01T00:29:17;101746.19;;;3.85;100.00
17525;BME280;40431;52.198;9.902;2022-12-01T00:31:47;101746.19;;;3.85;100.00
17525;BME280;40431;52.198;9.902;2022-12-01T00:34:25;101742.59;;;3.88;100.00
17525;BME280;40431;52.198;9.902;2022-12-01T00:36:53;101746.22;;;3.87;100.00
17525;BME280;40431;52.198;9.902;2022-12-01T00:39:22;101748.88;;;3.89;100.00
17525;BME280;40431;52.198;9.902;2022-12-01T00:41:50;101739.97;;;3.85;100.00
17525;BME280;40431;52.198;9.902;2022-12-01T00:44:19;101740.84;;;3.85;100.00
17525;BME280;40431;52.198;9.902;2022-12-01T00:46:49;101739.09;;;3.81;100.00
17525;BME280;40431;52.198;9.902;2022-12-01T00:49:19;101744.53;;;3.78;100.00
17525;BME280;40431;52.198;9.902;2022-12-01T00:51:48;101744.56;;;3.75;100.00
17525;BME280;40431;52.198;9.902;2022-12-01T00:54:17;101746.44;;;3.70;100.00
17525;BME280;40431;52.198;9.902;2022-12-01T00:56:45;101756.28;;;3.68;100.00
17525;BME280;40431;52.198;9.902;2022-12-01T00:59:14;101750.09;;;3.63;100.00
17525;BME280;40431;52.198;9.902;2022-12-01T01:01:41;101747.41;;;3.63;100.00
17525;BME280;40431;52.198;9.902;2022-12-01T01:04:11;101752.84;;;3.58;100.00
17525;BME280;40431;52.198;9.902;2022-12-01T01:06:39;101753.72;;;3.59;100.00
17525;BME280;40431;52.198;9.902;2022-12-01T01:09:10;101766.28;;;3.57;100.00
17525;BME280;40431;52.198;9.902;2022-12-01T01:11:38;101761.84;;;3.53;100.00
17525;BME280;40431;52.198;9.902;2022-12-01T01:14:06;101764.53;;;3.53;100.00
17525;BME280;40431;52.198;9.902;2022-12-01T01:16:35;101771.59;;;3.60;100.00
17525;BME280;40431;52.198;9.902;2022-12-01T01:19:06;101759.06;;;3.62;100.00
17525;BME280;40431;52.198;9.902;2022-12-01T01:21:38;101773.31;;;3.64;100.00
17525;BME280;40431;52.198;9.902;2022-12-01T01:24:11;101764.31;;;3.68;100.00
17525;BME280;40431;52.198;9.902;2022-12-01T01:26:40;101770.56;;;3.70;100.00
17525;BME280;40431;52.198;9.902;2022-12-01T01:29:08;101767.88;;;3.70;100.00
17525;BME280;40431;52.198;9.902;2022-12-01T01:31:36;101761.69;;;3.65;100.00
17525;BME280;40431;52.198;9.902;2022-12-01T01:34:04;101769.84;;;3.57;100.00
17525;BME280;40431;52.198;9.902;2022-12-01T01:36:32;101776.09;;;3.58;100.00
17525;BME280;40431;52.198;9.902;2022-12-01T01:39:02;101775.16;;;3.62;100.00
17525;BME280;40431;52.198;9.902;2022-12-01T01:41:31;101766.28;;;3.54;100.00
17525;BME280;40431;52.198;9.902;2022-12-01T01:44:00;101771.69;;;3.50;100.00
17525;BME280;40431;52.198;9.902;2022-12-01T01:46:31;101771.72;;;3.49;100.00
17525;BME280;40431;52.198;9.902;2022-12-01T01:49:01;101780.69;;;3.46;100.00
17525;BME280;40431;52.198;9.902;2022-12-01T01:51:32;101772.63;;;3.48;100.00
17525;BME280;40431;52.198;9.902;2022-12-01T01:54:05;101765.50;;;3.48;100.00
17525;BME280;40431;52.198;9.902;2022-12-01T01:56:34;101769.91;;;3.49;100.00
17525;BME280;40431;52.198;9.902;2022-12-01T01:59:03;101768.19;;;3.45;100.00
17525;BME280;40431;52.198;9.902;2022-12-01T02:01:31;101772.72;;;3.40;100.00
17525;BME280;40431;52.198;9.902;2022-12-01T02:04:05;101770.97;;;3.36;100.00
17525;BME280;40431;52.198;9.902;2022-12-01T02:06:33;101765.59;;;3.39;100.00
17525;BME280;40431;52.198;9.902;2022-12-01T02:09:03;101773.69;;;3.33;100.00
17525;BME280;40431;52.198;9.902;2022-12-01T02:11:46;101773.75;;;3.30;100.00
17525;BME280;40431;52.198;9.902;2022-12-01T02:14:32;101778.22;;;3.28;100.00
17525;BME280;40431;52.198;9.902;2022-12-01T02:17:10;101778.28;;;3.25;100.00
17525;BME280;40431;52.198;9.902;2022-12-01T02:20:09;101773.84;;;3.21;100.00
17525;BME280;40431;52.198;9.902;2022-12-01T02:22:49;101773.84;;;3.17;100.00
17525;BME280;40431;52.198;9.902;2022-12-01T02:25:27;101778.38;;;3.14;100.00
17525;BME280;40431;52.198;9.902;2022-12-01T02:28:25;101776.59;;;3.13;100.00
17525;BME280;40431;52.198;9.902;2022-12-01T02:31:01;101778.44;;;3.08;100.00
17525;BME280;40431;52.198;9.902;2022-12-01T02:33:38;101780.22;;;3.06;100.00
17525;BME280;40431;52.198;9.902;2022-12-01T02:36:13;101786.50;;;3.06;100.00
17525;BME280;40431;52.198;9.902;2022-12-01T02:38:46;101790.06;;;3.05;100.00
17525;BME280;40431;52.198;9.902;2022-12-01T02:41:24;101777.63;;;3.01;100.00
17525;BME280;40431;52.198;9.902;2022-12-01T02:43:59;101792.78;;;3.02;100.00
17525;BME280;40431;52.198;9.902;2022-12-01T02:46:34;101791.03;;;2.99;100.00
17525;BME280;40431;52.198;9.902;2022-12-01T02:49:08;101791.88;;;3.03;100.00
17525;BME280;40431;52.198;9.902;2022-12-01T02:51:39;101783.81;;;3.03;100.00
17525;BME280;40431;52.198;9.902;2022-12-01T02:54:13;101789.28;;;2.97;100.00
17525;BME280;40431;52.198;9.902;2022-12-01T02:56:43;101789.31;;;2.91;100.00
17525;BME280;40431;52.198;9.902;2022-12-01T02:59:13;101790.28;;;2.83;100.00
17525;BME280;40431;52.198;9.902;2022-12-01T03:01:56;101792.97;;;2.83;100.00
17525;BME280;40431;52.198;9.902;2022-12-01T03:04:36;101790.31;;;2.82;100.00
17525;BME280;40431;52.198;9.902;2022-12-01T03:07:12;101800.19;;;2.75;100.00
17525;BME280;40431;52.198;9.902;2022-12-01T03:09:53;101785.13;;;2.59;100.00
17525;BME280;40431;52.198;9.902;2022-12-01T03:12:36;101798.53;;;2.59;100.00
17525;BME280;40431;52.198;9.902;2022-12-01T03:15:10;101789.63;;;2.57;100.00
17525;BME280;40431;52.198;9.902;2022-12-01T03:17:46;101784.25;;;2.60;100.00
17525;BME280;40431;52.198;9.902;2022-12-01T03:20:20;101787.81;;;2.57;100.00
17525;BME280;40431;52.198;9.902;2022-12-01T03:22:54;101792.31;;;2.57;100.00
17525;BME280;40431;52.198;9.902;2022-12-01T03:25:27;101791.41;;;2.56;100.00
17525;BME280;40431;52.198;9.902;2022-12-01T03:27:58;101791.44;;;2.52;100.00
17525;BME280;40431;52.198;9.902;2022-12-01T03:30:28;101790.63;;;2.40;100.00
17525;BME280;40431;52.198;9.902;2022-12-01T03:33:04;101788.88;;;2.36;100.00
17525;BME280;40431;52.198;9.902;2022-12-01T03:35:37;101789.75;;;2.37;100.00
17525;BME280;40431;52.198;9.902;2022-12-01T03:38:11;101788.84;;;2.41;100.00
17525;BME280;40431;52.198;9.902;2022-12-01T03:40:45;101789.78;;;2.35;100.00
17525;BME280;40431;52.198;9.902;2022-12-01T03:43:18;101793.31;;;2.40;100.00
17525;BME280;40431;52.198;9.902;2022-12-01T03:45:52;101796.84;;;2.45;100.00
17525;BME280;40431;52.198;9.902;2022-12-01T03:48:22;101800.41;;;2.49;100.00
17525;BME280;40431;52.198;9.902;2022-12-01T03:50:57;101794.19;;;2.42;100.00
17525;BME280;40431;52.198;9.902;2022-12-01T03:53:32;101795.97;;;2.40;100.00
17525;BME280;40431;52.198;9.902;2022-12-01T03:56:04;101797.75;;;2.41;100.00
17525;BME280;40431;52.198;9.902;2022-12-01T03:58:37;101793.28;;;2.43;100.00
17525;BME280;40431;52.198;9.902;2022-12-01T04:01:06;101805.75;;;2.46;100.00
17525;BME280;40431;52.198;9.902;2022-12-01T04:03:34;101795.03;;;2.46;100.00
17525;BME280;40431;52.198;9.902;2022-12-01T04:06:01;101801.31;;;2.46;100.00
17525;BME280;40431;52.198;9.902;2022-12-01T04:08:28;101801.28;;;2.49;100.00
17525;BME280;40431;52.198;9.902;2022-12-01T04:10:56;101809.41;;;2.36;100.00
17525;BME280;40431;52.198;9.902;2022-12-01T04:13:22;101806.72;;;2.37;100.00
17525;BME280;40431;52.198;9.902;2022-12-01T04:15:48;101808.50;;;2.35;100.00
17525;BME280;40431;52.198;9.902;2022-12-01T04:18:15;101804.03;;;2.37;100.00
17525;BME280;40431;52.198;9.902;2022-12-01T04:20:44;101811.13;;;2.44;100.00
17525;BME280;40431;52.198;9.902;2022-12-01T04:23:10;101804.91;;;2.42;100.00
17525;BME280;40431;52.198;9.902;2022-12-01T04:25:58;101795.09;;;2.40;100.00
17525;BME280;40431;52.198;9.902;2022-12-01T04:28:25;101801.34;;;2.40;100.00
17525;BME280;40431;52.198;9.902;2022-12-01T04:30:51;101798.66;;;2.40;100.00
17525;BME280;40431;52.198;9.902;2022-12-01T04:33:19;101801.41;;;2.34;100.00
17525;BME280;40431;52.198;9.902;2022-12-01T04:35:55;101802.25;;;2.36;100.00
17525;BME280;40431;52.198;9.902;2022-12-01T04:38:21;101805.75;;;2.44;100.00
17525;BME280;40431;52.198;9.902;2022-12-01T04:40:48;101804.81;;;2.55;100.00
17525;BME280;40431;52.198;9.902;2022-12-01T04:43:14;101796.78;;;2.55;100.00
17525;BME280;40431;52.198;9.902;2022-12-01T04:45:41;101802.13;;;2.55;100.00
17525;BME280;40431;52.198;9.902;2022-12-01T04:48:07;101804.00;;;2.45;100.00
17525;BME280;40431;52.198;9.902;2022-12-01T04:50:34;101804.03;;;2.37;100.00
17525;BME280;40431;52.198;9.902;2022-12-01T04:53:02;101796.97;;;2.25;100.00
17525;BME280;40431;52.198;9.902;2022-12-01T04:55:29;101805.00;;;2.27;100.00
17525;BME280;40431;52.198;9.902;2022-12-01T04:57:55;101797.00;;;2.22;100.00
17525;BME280;40431;52.198;9.902;2022-12-01T05:00:25;101807.69;;;2.27;100.00
17525;BME280;40431;52.198;9.902;2022-12-01T05:02:52;101811.22;;;2.30;100.00
17525;BME280;40431;52.198;9.902;2022-12-01T05:05:18;101801.47;;;2.22;100.00
17525;BME280;40431;52.198;9.902;2022-12-01T05:07:45;101813.91;;;2.29;100.00
17525;BME280;40431;52.198;9.902;2022-12-01T05:10:13;101814.81;;;2.23;100.00
17525;BME280;40431;52.198;9.902;2022-12-01T05:12:43;101817.50;;;2.22;100.00
17525;BME280;40431;52.198;9.902;2022-12-01T05:15:10;101823.72;;;2.27;100.00
17525;BME280;40431;52.198;9.902;2022-12-01T05:17:37;101819.28;;;2.26;100.00
17525;BME280;40431;52.198;9.902;2022-12-01T05:20:06;101825.50;;;2.29;100.00
17525;BME280;40431;52.198;9.902;2022-12-01T05:22:50;101827.28;;;2.30;100.00
17525;BME280;40431;52.198;9.902;2022-12-01T05:25:19;101821.91;;;2.32;100.00
17525;BME280;40431;52.198;9.902;2022-12-01T05:27:45;101829.94;;;2.38;100.00
17525;BME280;40431;52.198;9.902;2022-12-01T05:30:12;101827.22;;;2.40;100.00
17525;BME280;40431;52.198;9.902;2022-12-01T05:32:38;101833.50;;;2.37;100.00
17525;BME280;40431;52.198;9.902;2022-12-01T05:35:06;101829.94;;;2.38;100.00
17525;BME280;40431;52.198;9.902;2022-12-01T05:37:33;101839.72;;;2.42;100.00
17525;BME280;40431;52.198;9.902;2022-12-01T05:40:00;101831.69;;;2.42;100.00
17525;BME280;40431;52.198;9.902;2022-12-01T05:42:28;101837.09;;;2.33;100.00
17525;BME280;40431;52.198;9.902;2022-12-01T05:44:54;101835.31;;;2.27;100.00
17525;BME280;40431;52.198;9.902;2022-12-01T05:47:21;101837.13;;;2.25;100.00
17525;BME280;40431;52.198;9.902;2022-12-01T05:49:48;101836.22;;;2.28;100.00
17525;BME280;40431;52.198;9.902;2022-12-01T05:52:14;101845.13;;;2.33;100.00
17525;BME280;40431;52.198;9.902;2022-12-01T05:54:41;101844.22;;;2.31;100.00
17525;BME280;40431;52.198;9.902;2022-12-01T05:57:08;101850.47;;;2.33;100.00
17525;BME280;40431;52.198;9.902;2022-12-01T05:59:36;101846.00;;;2.32;100.00
17525;BME280;40431;52.198;9.902;2022-12-01T06:02:02;101846.00;;;2.32;100.00
17525;BME280;40431;52.198;9.902;2022-12-01T06:04:29;101845.13;;;2.33;100.00
17525;BME280;40431;52.198;9.902;2022-12-01T06:06:55;101853.16;;;2.33;100.00
17525;BME280;40431;52.198;9.902;2022-12-01T06:09:22;101854.94;;;2.34;100.00
17525;BME280;40431;52.198;9.902;2022-12-01T06:11:48;101853.16;;;2.33;100.00
17525;BME280;40431;52.198;9.902;2022-12-01T06:14:15;101852.22;;;2.37;100.00
17525;BME280;40431;52.198;9.902;2022-12-01T06:16:43;101854.00;;;2.38;100.00
17525;BME280;40431;52.198;9.902;2022-12-01T06:19:10;101858.44;;;2.39;100.00
17525;BME280;40431;52.198;9.902;2022-12-01T06:21:36;101862.00;;;2.41;100.00
17525;BME280;40431;52.198;9.902;2022-12-01T06:24:03;101860.31;;;2.28;100.00
17525;BME280;40431;52.198;9.902;2022-12-01T06:26:30;101863.00;;;2.28;100.00
17525;BME280;40431;52.198;9.902;2022-12-01T06:28:57;101867.41;;;2.35;100.00
17525;BME280;40431;52.198;9.902;2022-12-01T06:31:23;101864.72;;;2.33;100.00
17525;BME280;40431;52.198;9.902;2022-12-01T06:33:51;101868.31;;;2.36;100.00
17525;BME280;40431;52.198;9.902;2022-12-01T06:36:18;101871.84;;;2.38;100.00
17525;BME280;40431;52.198;9.902;2022-12-01T06:38:44;101881.66;;;2.40;100.00
17525;BME280;40431;52.198;9.902;2022-12-01T06:41:11;101876.28;;;2.40;100.00
17525;BME280;40431;52.198;9.902;2022-12-01T06:43:38;101880.72;;;2.46;100.00
17525;BME280;40431;52.198;9.902;2022-12-01T06:46:04;101878.94;;;2.43;100.00
17525;BME280;40431;52.198;9.902;2022-12-01T06:48:31;101881.63;;;2.46;100.00
17525;BME280;40431;52.198;9.902;2022-12-01T06:51:00;101884.31;;;2.46;100.00
17525;BME280;40431;52.198;9.902;2022-12-01T06:53:27;101877.16;;;2.50;100.00
17525;BME280;40431;52.198;9.902;2022-12-01T06:55:58;101886.91;;;2.53;100.00
17525;BME280;40431;52.198;9.902;2022-12-01T06:58:27;101886.91;;;2.53;100.00
17525;BME280;40431;52.198;9.902;2022-12-01T07:00:55;101894.06;;;2.57;100.00
17525;BME280;40431;52.198;9.902;2022-12-01T07:03:24;101885.16;;;2.48;100.00
17525;BME280;40431;52.198;9.902;2022-12-01T07:05:55;101887.03;;;2.37;100.00
17525;BME280;40431;52.198;9.902;2022-12-01T07:08:25;101884.38;;;2.32;100.00
17525;BME280;40431;52.198;9.902;2022-12-01T07:10:57;101882.66;;;2.24;100.00
17525;BME280;40431;52.198;9.902;2022-12-01T07:13:25;101888.91;;;2.20;100.00
17525;BME280;40431;52.198;9.902;2022-12-01T07:15:53;101891.56;;;2.18;100.00
17525;BME280;40431;52.198;9.902;2022-12-01T07:18:21;101892.47;;;2.20;100.00
17525;BME280;40431;52.198;9.902;2022-12-01T07:20:49;101894.25;;;2.23;100.00
17525;BME280;40431;52.198;9.902;2022-12-01T07:23:17;101897.78;;;2.23;100.00
17525;BME280;40431;52.198;9.902;2022-12-01T07:25:48;101895.09;;;2.28;100.00
17525;BME280;40431;52.198;9.902;2022-12-01T07:28:23;101883.56;;;2.20;100.00
17525;BME280;40431;52.198;9.902;2022-12-01T07:30:51;101887.09;;;2.25;100.00
17525;BME280;40431;52.198;9.902;2022-12-01T07:33:19;101889.72;;;2.31;100.00
17525;BME280;40431;52.198;9.902;2022-12-01T07:35:46;101892.41;;;2.31;100.00
17525;BME280;40431;52.198;9.902;2022-12-01T07:38:14;101899.53;;;2.38;100.00
17525;BME280;40431;52.198;9.902;2022-12-01T07:40:41;101894.13;;;2.41;100.00
17525;BME280;40431;52.198;9.902;2022-12-01T07:43:10;101894.13;;;2.41;100.00
17525;BME280;40431;52.198;9.902;2022-12-01T07:45:38;101891.47;;;2.40;100.00
17525;BME280;40431;52.198;9.902;2022-12-01T07:48:06;101898.59;;;2.44;100.00
17525;BME280;40431;52.198;9.902;2022-12-01T07:50:33;101899.50;;;2.35;100.00
17525;BME280;40431;52.198;9.902;2022-12-01T07:53:01;101912.03;;;2.33;100.00
17525;BME280;40431;52.198;9.902;2022-12-01T07:55:28;101902.19;;;2.35;100.00
17525;BME280;40431;52.198;9.902;2022-12-01T07:57:58;101906.69;;;2.31;100.00
17525;BME280;40431;52.198;9.902;2022-12-01T08:00:28;101903.13;;;2.31;100.00
17525;BME280;40431;52.198;9.902;2022-12-01T08:02:55;101910.25;;;2.30;100.00
17525;BME280;40431;52.198;9.902;2022-12-01T08:05:22;101913.81;;;2.34;100.00
17525;BME280;40431;52.198;9.902;2022-12-01T08:07:48;101909.31;;;2.41;100.00
17525;BME280;40431;52.198;9.902;2022-12-01T08:10:15;101911.09;;;2.39;100.00
17525;BME280;40431;52.198;9.902;2022-12-01T08:12:41;101911.06;;;2.46;100.00
17525;BME280;40431;52.198;9.902;2022-12-01T08:15:09;101926.22;;;2.49;100.00
17525;BME280;40431;52.198;9.902;2022-12-01T08:17:37;101916.41;;;2.49;100.00
17525;BME280;40431;52.198;9.902;2022-12-01T08:20:05;101919.06;;;2.49;100.00
17525;BME280;40431;52.198;9.902;2022-12-01T08:22:32;101920.88;;;2.47;100.00
17525;BME280;40431;52.198;9.902;2022-12-01T08:24:58;101917.31;;;2.45;100.00
17525;BME280;40431;52.198;9.902;2022-12-01T08:27:25;101921.78;;;2.45;100.00
17525;BME280;40431;52.198;9.902;2022-12-01T08:29:52;101922.66;;;2.45;100.00
17525;BME280;40431;52.198;9.902;2022-12-01T08:32:18;101929.84;;;2.40;100.00
17525;BME280;40431;52.198;9.902;2022-12-01T08:34:46;101928.97;;;2.40;100.00
17525;BME280;40431;52.198;9.902;2022-12-01T08:37:13;101924.53;;;2.31;100.00
17525;BME280;40431;52.198;9.902;2022-12-01T08:39:40;101936.13;;;2.30;100.00
17525;BME280;40431;52.198;9.902;2022-12-01T08:42:06;101929.91;;;2.28;100.00
17525;BME280;40431;52.198;9.902;2022-12-01T08:44:33;101922.78;;;2.21;100.00
17525;BME280;40431;52.198;9.902;2022-12-01T08:47:00;101931.72;;;2.16;100.00
17525;BME280;40431;52.198;9.902;2022-12-01T08:49:26;101938.88;;;2.11;100.00
17525;BME280;40431;52.198;9.902;2022-12-01T08:51:54;101926.38;;;2.16;100.00
17525;BME280;40431;52.198;9.902;2022-12-01T08:54:21;101929.97;;;2.12;100.00
17525;BME280;40431;52.198;9.902;2022-12-01T08:56:48;101938.84;;;2.17;100.00
17525;BME280;40431;52.198;9.902;2022-12-01T08:59:16;101943.31;;;2.20;100.00
17525;BME280;40431;52.198;9.902;2022-12-01T09:01:44;101940.63;;;2.25;100.00
17525;BME280;40431;52.198;9.902;2022-12-01T09:04:24;101945.09;;;2.16;100.00
17525;BME280;40431;52.198;9.902;2022-12-01T09:06:55;101948.69;;;2.15;100.00
17525;BME280;40431;52.198;9.902;2022-12-01T09:09:24;101948.66;;;2.20;100.00
17525;BME280;40431;52.198;9.902;2022-12-01T09:11:52;101948.69;;;2.17;100.00
17525;BME280;40431;52.198;9.902;2022-12-01T09:14:21;101942.41;;;2.16;100.00
17525;BME280;40431;52.198;9.902;2022-12-01T09:16:49;101943.34;;;2.17;100.00
17525;BME280;40431;52.198;9.902;2022-12-01T09:19:18;101947.75;;;2.18;100.00
17525;BME280;40431;52.198;9.902;2022-12-01T09:21:45;101949.53;;;2.21;100.00
17525;BME280;40431;52.198;9.902;2022-12-01T09:24:15;101959.34;;;2.22;100.00
17525;BME280;40431;52.198;9.902;2022-12-01T09:26:42;101954.84;;;2.30;100.00
17525;BME280;40431;52.198;9.902;2022-12-01T09:29:12;101959.38;;;2.20;100.00
17525;BME280;40431;52.198;9.902;2022-12-01T09:31:40;101956.72;;;2.15;100.00
17525;BME280;40431;52.198;9.902;2022-12-01T09:34:11;101958.47;;;2.18;100.00
17525;BME280;40431;52.198;9.902;2022-12-01T09:36:38;101967.44;;;2.15;100.00
17525;BME280;40431;52.198;9.902;2022-12-01T09:39:09;101954.03;;;2.17;100.00
17525;BME280;40431;52.198;9.902;2022-12-01T09:41:43;101956.72;;;2.09;100.00
17525;BME280;40431;52.198;9.902;2022-12-01T09:44:16;101955.84;;;2.10;100.00
17525;BME280;40431;52.198;9.902;2022-12-01T09:46:49;101955.81;;;2.15;100.00
17525;BME280;40431;52.198;9.902;2022-12-01T09:49:20;101952.25;;;2.17;100.00
17525;BME280;40431;52.198;9.902;2022-12-01T09:51:51;101950.44;;;2.16;100.00
17525;BME280;40431;52.198;9.902;2022-12-01T09:54:20;101948.69;;;2.19;100.00
17525;BME280;40431;52.198;9.902;2022-12-01T09:56:51;101947.78;;;2.15;100.00
17525;BME280;40431;52.198;9.902;2022-12-01T09:59:23;101939.78;;;2.13;100.00
17525;BME280;40431;52.198;9.902;2022-12-01T10:01:54;101937.97;;;2.20;100.00
17525;BME280;40431;52.198;9.902;2022-12-01T10:04:28;101935.28;;;2.20;100.00
17525;BME280;40431;52.198;9.902;2022-12-01T10:06:59;101934.34;;;2.30;100.00
17525;BME280;40431;52.198;9.902;2022-12-01T10:09:29;101926.31;;;2.32;100.00
17525;BME280;40431;52.198;9.902;2022-12-01T10:12:05;101929.88;;;2.34;100.00
17525;BME280;40431;52.198;9.902;2022-12-01T10:14:36;101935.19;;;2.39;100.00
17525;BME280;40431;52.198;9.902;2022-12-01T10:17:12;101931.66;;;2.27;100.00
17525;BME280;40431;52.198;9.902;2022-12-01T10:19:46;101927.22;;;2.29;100.00
17525;BME280;40431;52.198;9.902;2022-12-01T10:22:44;101936.09;;;2.36;100.00
17525;BME280;40431;52.198;9.902;2022-12-01T10:25:20;101927.13;;;2.43;100.00
17525;BME280;40431;52.198;9.902;2022-12-01T10:27:59;101924.44;;;2.49;100.00
17525;BME280;40431;52.198;9.902;2022-12-01T10:30:35;101927.09;;;2.56;100.00
17525;BME280;40431;52.198;9.902;2022-12-01T10:33:13;101924.41;;;2.54;100.00
17525;BME280;40431;52.198;9.902;2022-12-01T10:35:44;101924.38;;;2.59;100.00
17525;BME280;40431;52.198;9.902;2022-12-01T10:38:19;101927.94;;;2.64;100.00
17525;BME280;40431;52.198;9.902;2022-12-01T10:40:50;101922.53;;;2.67;100.00
17525;BME280;40431;52.198;9.902;2022-12-01T10:43:26;101927.00;;;2.73;100.00
17525;BME280;40431;52.198;9.902;2022-12-01T10:45:57;101918.03;;;2.72;100.00
17525;BME280;40431;52.198;9.902;2022-12-01T10:48:26;101918.03;;;2.74;100.00
17525;BME280;40431;52.198;9.902;2022-12-01T10:50:54;101922.47;;;2.76;100.00
17525;BME280;40431;52.198;9.902;2022-12-01T10:53:30;101915.34;;;2.78;100.00
17525;BME280;40431;52.198;9.902;2022-12-01T10:56:03;101918.03;;;2.77;100.00
17525;BME280;40431;52.198;9.902;2022-12-01T10:58:41;101920.72;;;2.72;100.00
17525;BME280;40431;52.198;9.902;2022-12-01T11:01:17;101918.97;;;2.68;100.00
17525;BME280;40431;52.198;9.902;2022-12-01T11:03:50;101910.00;;;2.72;100.00
17525;BME280;40431;52.198;9.902;2022-12-01T11:06:24;101906.47;;;2.70;100.00
17525;BME280;40431;52.198;9.902;2022-12-01T11:08:55;101909.13;;;2.72;100.00
17525;BME280;40431;52.198;9.902;2022-12-01T11:11:29;101911.78;;;2.73;100.00
17525;BME280;40431;52.198;9.902;2022-12-01T11:14:01;101912.66;;;2.78;100.00
17525;BME280;40431;52.198;9.902;2022-12-01T11:16:41;101909.94;;;2.84;100.00
17525;BME280;40431;52.198;9.902;2022-12-01T11:19:24;101905.44;;;2.88;100.00
17525;BME280;40431;52.198;9.902;2022-12-01T11:21:55;101904.50;;;2.94;100.00
17525;BME280;40431;52.198;9.902;2022-12-01T11:24:29;101903.56;;;2.96;100.00
17525;BME280;40431;52.198;9.902;2022-12-01T11:27:00;101906.28;;;2.98;100.00
17525;BME280;40431;52.198;9.902;2022-12-01T11:29:35;101895.56;;;2.95;100.00
17525;BME280;40431;52.198;9.902;2022-12-01T11:32:18;101898.22;;;2.95;100.00
17525;BME280;40431;52.198;9.902;2022-12-01T11:34:49;101890.19;;;2.98;100.00
17525;BME280;40431;52.198;9.902;2022-12-01T11:37:20;101890.19;;;2.96;100.00
17525;BME280;40431;52.198;9.902;2022-12-01T11:39:49;101894.66;;;2.96;100.00
17525;BME280;40431;52.198;9.902;2022-12-01T11:42:24;101892.91;;;2.93;100.00
17525;BME280;40431;52.198;9.902;2022-12-01T11:44:56;101883.09;;;2.91;100.00
17525;BME280;40431;52.198;9.902;2022-12-01T11:47:27;101896.44;;;2.94;100.00
17525;BME280;40431;52.198;9.902;2022-12-01T11:49:56;101889.34;;;2.91;100.00
17525;BME280;40431;52.198;9.902;2022-12-01T11:52:27;101904.53;;;2.91;100.00
17525;BME280;40431;52.198;9.902;2022-12-01T11:54:59;101895.63;;;2.89;100.00
17525;BME280;40431;52.198;9.902;2022-12-01T11:57:29;101898.31;;;2.89;100.00
17525;BME280;40431;52.198;9.902;2022-12-01T11:59:59;101888.44;;;2.92;100.00
17525;BME280;40431;52.198;9.902;2022-12-01T12:02:34;101898.28;;;2.90;100.00
17525;BME280;40431;52.198;9.902;2022-12-01T12:05:38;101897.38;;;2.90;100.00
17525;BME280;40431;52.198;9.902;2022-12-01T12:08:17;101884.00;;;2.91;100.00
17525;BME280;40431;52.198;9.902;2022-12-01T12:10:54;101886.66;;;2.93;100.00
17525;BME280;40431;52.198;9.902;2022-12-01T12:13:55;101888.47;;;2.88;100.00
17525;BME280;40431;52.198;9.902;2022-12-01T12:16:38;101883.19;;;2.78;100.00
17525;BME280;40431;52.198;9.902;2022-12-01T12:19:25;101876.03;;;2.77;100.00
17525;BME280;40431;52.198;9.902;2022-12-01T12:22:06;101883.19;;;2.78;100.00
17525;BME280;40431;52.198;9.902;2022-12-01T12:24:47;101885.81;;;2.83;100.00
17525;BME280;40431;52.198;9.902;2022-12-01T12:27:25;101880.47;;;2.84;100.00
17525;BME280;40431;52.198;9.902;2022-12-01T12:30:03;101883.16;;;2.81;100.00
17525;BME280;40431;52.198;9.902;2022-12-01T12:32:54;101881.31;;;2.90;100.00
17525;BME280;40431;52.198;9.902;2022-12-01T12:35:35;101874.19;;;2.86;100.00
17525;BME280;40431;52.198;9.902;2022-12-01T12:38:11;101875.13;;;2.81;100.00
17525;BME280;40431;52.198;9.902;2022-12-01T12:40:45;101872.47;;;2.78;100.00
17525;BME280;40431;52.198;9.902;2022-12-01T12:43:23;101870.72;;;2.71;100.00
17525;BME280;40431;52.198;9.902;2022-12-01T12:45:59;101867.13;;;2.74;100.00
17525;BME280;40431;52.198;9.902;2022-12-01T12:51:19;101870.69;;;2.79;100.00
17525;BME280;40431;52.198;9.902;2022-12-01T12:53:51;101864.50;;;2.71;100.00
17525;BME280;40431;52.198;9.902;2022-12-01T12:56:23;101861.84;;;2.69;100.00
17525;BME280;40431;52.198;9.902;2022-12-01T12:58:56;101866.28;;;2.70;100.00
17525;BME280;40431;52.198;9.902;2022-12-01T13:01:32;101873.38;;;2.77;100.00
17525;BME280;40431;52.198;9.902;2022-12-01T13:04:08;101875.09;;;2.86;100.00
17525;BME280;40431;52.198;9.902;2022-12-01T13:06:40;101867.13;;;2.78;100.00
17525;BME280;40431;52.198;9.902;2022-12-01T13:09:12;101865.34;;;2.77;100.00
17525;BME280;40431;52.198;9.902;2022-12-01T13:11:45;101872.56;;;2.66;100.00
17525;BME280;40431;52.198;9.902;2022-12-01T13:14:19;101870.81;;;2.63;100.00